Dutse International Airport

DNDS · Jigawa, Nigeria

Historia METAR DNDS · Dutse International Airport

Poniżej widzisz METAR-y z ostatnich kilku dni. Wybierz rok, aby przeglądać starsze METAR-y, począwszy od roku 2007.

14 kwietnia 2024

Czas Kod Pogoda Temp. Widoczność Sufit Wiatr METAR/SPECI
19:00
V
34 °C 10 km+ - 330° 330° 7 kt METAR DNKN 141800Z 33007KT CAVOK 34/17 Q1013 NOSIG
18:00
V
35 °C 10 km+ - 330° 330° 9 kt METAR DNKN 141700Z 33009KT CAVOK 35/17 Q1012 NOSIG
17:00
V
36 °C 10 km+ - 300° 300° 8 kt METAR DNKN 141600Z 30008KT CAVOK 36/16 Q1011 NOSIG
16:00
V
36 °C 10 km+ - 340° 340° 10 kt METAR DNKN 141500Z 34010KT CAVOK 36/14 Q1011 NOSIG
15:00
V
36 °C 10 km+ - 330° 330° 9 kt METAR DNKN 141400Z 33009KT CAVOK 36/12 Q1012 NOSIG
14:00
V
37 °C 10 km+ - 330° 330° 10 kt METAR DNKN 141300Z 33010KT CAVOK 37/12 Q1013 NOSIG
13:00
V
37 °C 10 km+ - 320° 320° 12 kt METAR DNKN 141200Z 32012KT CAVOK 37/13 Q1014 NOSIG
12:00
V
36 °C 10 km+ - 320° 320° 11 kt METAR DNKN 141100Z 32011KT CAVOK 36/14 Q1014 NOSIG
11:00
V
34 °C 10 km+ - 280° 280° 11 kt METAR DNKN 141000Z 28011KT CAVOK 34/18 Q1015 NOSIG
10:00
V
31 °C 10 km+ - 250° 250° 13 kt METAR DNKN 140900Z 25013KT CAVOK 31/18 Q1015 NOSIG
08:00
V
28 °C 8 km - 240° 240° 12 kt METAR DNKN 140700Z 24012KT 8000 NSC 28/19 Q1014 NOSIG
07:00
M
28 °C 7 km - 240° 240° 10 kt METAR DNKN 140600Z 24010KT 7000 NSC 28/19 Q1014 NOSIG
06:00
V
29 °C 10 km+ - 240° 240° 12 kt METAR DNKN 140500Z 24012KT CAVOK 29/14 Q1013 NOSIG
05:00
V
28 °C 10 km+ - 240° 240° 13 kt METAR DNKN 140400Z 24013KT CAVOK 28/11 Q1012 NOSIG
04:00
V
28 °C 10 km+ - 250° 250° 10 kt METAR DNKN 140300Z 25010KT CAVOK 28/05 Q1011 NOSIG
03:00
V
28 °C 10 km+ - 240° 240° 14 kt METAR DNKN 140200Z 24014KT CAVOK 28/09 Q1011 NOSIG
02:00
V
29 °C 10 km+ - 210° 210° 8 kt METAR DNKN 140100Z 21008KT CAVOK 29/09 Q1011 NOSIG
01:00
V
29 °C 10 km+ - 250° 250° 6 kt METAR DNKN 140000Z 25006KT CAVOK 29/08 Q1011 NOSIG
00:00
V
29 °C 10 km+ - 260° 260° 7 kt METAR DNKN 132300Z 26007KT CAVOK 29/09 Q1011 NOSIG

13 kwietnia 2024

Czas Kod Pogoda Temp. Widoczność Sufit Wiatr METAR/SPECI
23:00
V
31 °C 10 km+ - 210° 210° 7 kt METAR DNKN 132200Z 21007KT CAVOK 31/09 Q1011 NOSIG
22:00
V
32 °C 10 km+ - 100° 100° 3 kt METAR DNKN 132100Z 10003KT CAVOK 32/10 Q1011 NOSIG
21:00
V
34 °C 10 km+ - 040° 040° 3 kt METAR DNKN 132000Z 04003KT CAVOK 34/11 Q1010 NOSIG
20:00
V
35 °C 8 km - 060° 060° 5 kt METAR DNKN 131900Z 06005KT 8000 NSC 35/12 Q1009 NOSIG
19:00
V
37 °C 8 km - 060° 060° 6 kt METAR DNKN 131800Z 06006KT 8000 NSC 37/11 Q1009 NOSIG
18:00
V
40 °C 10 km+ - 080° 080° 5 kt METAR DNKN 131700Z 08005KT CAVOK 40/12 Q1008 NOSIG
17:00
V
40 °C 10 km+ - 200° 200° 3 kt METAR DNKN 131600Z 20003KT CAVOK 40/12 Q1008 NOSIG
16:00
V
41 °C 10 km+ - 200° 200° 5 kt METAR DNKN 131500Z 20005KT CAVOK 41/13 Q1009 NOSIG
15:00
V
41 °C 10 km+ - 180° 180° 6 kt METAR DNKN 131400Z 18006KT CAVOK 41/11 Q1009 NOSIG
14:00
V
42 °C 10 km+ - 350° 350° 5 kt METAR DNKN 131300Z 35005KT CAVOK 42/14 Q1010 NOSIG
13:00
V
40 °C 10 km+ - 190° 190° 8 kt METAR DNKN 131200Z 19008KT CAVOK 40/15 Q1011 NOSIG
12:00
V
39 °C 10 km+ - 240° 240° 6 kt METAR DNKN 131100Z 24006KT CAVOK 39/16 Q1012 NOSIG
11:00
V
37 °C 10 km+ - 240° 240° 3 kt METAR DNKN 131000Z 24003KT CAVOK 37/19 Q1013 NOSIG
10:00
V
34 °C 10 km+ - 230° 230° 8 kt METAR DNKN 130900Z 23008KT CAVOK 34/18 Q1013 NOSIG
09:00
V
32 °C 10 km+ - 200° 200° 12 kt METAR DNKN 130800Z 20012KT CAVOK 32/17 Q1013 NOSIG
08:00
V
30 °C 10 km+ - 200° 200° 8 kt METAR DNKN 130700Z 20008KT CAVOK 30/17 Q1012 NOSIG
07:00
V
28 °C 10 km+ - 210° 210° 8 kt METAR DNKN 130600Z 21008KT CAVOK 28/17 Q1012 NOSIG
06:00
V
28 °C 10 km+ - 230° 230° 8 kt METAR DNKN 130500Z 23008KT CAVOK 28/15 Q1011 NOSIG
05:00
V
29 °C 10 km+ - 230° 230° 8 kt METAR DNKN 130400Z 23008KT CAVOK 29/13 Q1011 NOSIG
04:00
V
27 °C 10 km+ - 230° 230° 6 kt METAR DNKN 130300Z 23006KT CAVOK 27/05 Q1010 NOSIG
03:00
V
27 °C 10 km+ - 200° 200° 6 kt METAR DNKN 130200Z 20006KT CAVOK 27/05 Q1010 NOSIG
02:00
V
27 °C 10 km+ - 180° 180° 5 kt METAR DNKN 130100Z 18005KT CAVOK 27/06 Q1010 NOSIG
01:00
V
28 °C 10 km+ - 290° 290° 3 kt METAR DNKN 130000Z 29003KT CAVOK 28/07 Q1011 NOSIG
00:00
V
29 °C 10 km+ - 280° 280° 3 kt METAR DNKN 122300Z 28003KT CAVOK 29/06 Q1011 NOSIG

12 kwietnia 2024

Czas Kod Pogoda Temp. Widoczność Sufit Wiatr METAR/SPECI
23:00
V
29 °C 10 km+ - 300° 300° 3 kt METAR DNKN 122200Z 30003KT CAVOK 29/07 Q1012 NOSIG
22:00
V
31 °C 10 km+ - 360° 360° 0 kt METAR DNKN 122100Z 00000KT CAVOK 31/07 Q1012 NOSIG
21:00
V
32 °C 10 km+ - 360° 360° 0 kt METAR DNKN 122000Z 00000KT CAVOK 32/07 Q1011 NOSIG
20:00
V
34 °C 10 km+ - 040° 040° 3 kt METAR DNKN 121900Z 04003KT CAVOK 34/07 Q1011 NOSIG
19:00
M
35 °C 7 km - 050° 050° 6 kt METAR DNKN 121800Z 05006KT 7000 NSC 35/10 Q1010 NOSIG
18:00
M
39 °C 7 km - 030° 030° 5 kt METAR DNKN 121700Z 03005KT 7000 NSC 39/13 Q1010 NOSIG
17:00
M
40 °C 7 km - 020° 020° 10 kt METAR DNKN 121600Z 02010KT 7000 NSC 40/13 Q1009 NOSIG
16:00
M
40 °C 6 km - 290° 290° 4 kt METAR DNKN 121500Z 29004KT 6000 NSC 40/15 Q1010 NOSIG
15:00
M
40 °C 6 km - 360° 360° 0 kt METAR DNKN 121400Z 00000KT 6000 NSC 40/13 Q1011 NOSIG
14:00
M
39 °C 6 km - 230° 230° 6 kt METAR DNKN 121300Z 23006KT 6000 NSC 39/11 Q1011 NOSIG
13:00
M
38 °C 6 km - 050° 050° 3 kt METAR DNKN 121200Z 05003KT 6000 NSC 38/12 Q1013 NOSIG
12:00
M
38 °C 5 km - 150° 150° 5 kt METAR DNKN 121100Z 15005KT 5000 HZ NSC 38/11 Q1014 NOSIG
11:00
M
36 °C 5 km - 110° 110° 10 kt METAR DNKN 121000Z 11010KT 5000 HZ NSC 36/10 Q1014 NOSIG
10:00
I
34 °C 4,5 km - 200° 200° 7 kt METAR DNKN 120900Z 20007KT 4500 HZ NSC 34/12 Q1015 BECMG 5000
09:00
I
33 °C 3,5 km - 180° 180° 5 kt METAR DNKN 120800Z 18005KT 3500 HZ NSC 33/05 Q1015 NOSIG
08:00
I
31 °C 3 km - 190° 190° 6 kt METAR DNKN 120700Z 19006KT 3000 HZ NSC 31/03 Q1014 NOSIG
07:00
M
27 °C 5 km - 200° 200° 5 kt METAR DNKN 120600Z 20005KT 5000 HZ NSC 27/03 Q1013 TEMPO 3000
Zgłoś zmianę